sensor_id;sensor_type;location;lat;lon;timestamp;temperature;humidity
15328;DHT22;7764;51.430;6.840;2023-02-28T00:00:21;1.80;99.90
15328;DHT22;7764;51.430;6.840;2023-02-28T00:02:48;1.80;99.90
15328;DHT22;7764;51.430;6.840;2023-02-28T00:05:17;1.80;99.90
15328;DHT22;7764;51.430;6.840;2023-02-28T00:07:44;1.80;99.90
15328;DHT22;7764;51.430;6.840;2023-02-28T00:10:13;1.80;99.90
15328;DHT22;7764;51.430;6.840;2023-02-28T00:12:40;1.80;99.90
15328;DHT22;7764;51.430;6.840;2023-02-28T00:15:10;1.80;99.90
15328;DHT22;7764;51.430;6.840;2023-02-28T00:17:37;1.70;99.90
15328;DHT22;7764;51.430;6.840;2023-02-28T00:20:08;1.70;99.90
15328;DHT22;7764;51.430;6.840;2023-02-28T00:22:36;1.70;99.90
15328;DHT22;7764;51.430;6.840;2023-02-28T00:25:05;1.70;99.90
15328;DHT22;7764;51.430;6.840;2023-02-28T00:27:33;1.70;99.90
15328;DHT22;7764;51.430;6.840;2023-02-28T00:29:59;1.70;99.90
15328;DHT22;7764;51.430;6.840;2023-02-28T00:32:28;1.70;99.90
15328;DHT22;7764;51.430;6.840;2023-02-28T00:34:55;1.70;99.90
15328;DHT22;7764;51.430;6.840;2023-02-28T00:37:22;1.70;99.90
15328;DHT22;7764;51.430;6.840;2023-02-28T00:39:49;1.60;99.90
15328;DHT22;7764;51.430;6.840;2023-02-28T00:42:15;1.60;99.90
15328;DHT22;7764;51.430;6.840;2023-02-28T00:44:42;1.60;99.90
15328;DHT22;7764;51.430;6.840;2023-02-28T00:47:09;1.60;99.90
15328;DHT22;7764;51.430;6.840;2023-02-28T00:49:37;1.60;99.90
15328;DHT22;7764;51.430;6.840;2023-02-28T00:52:04;1.60;99.90
15328;DHT22;7764;51.430;6.840;2023-02-28T00:54:31;1.60;99.90
15328;DHT22;7764;51.430;6.840;2023-02-28T00:56:58;1.60;99.90
15328;DHT22;7764;51.430;6.840;2023-02-28T00:59:25;1.60;99.90
15328;DHT22;7764;51.430;6.840;2023-02-28T01:01:52;1.50;99.90
15328;DHT22;7764;51.430;6.840;2023-02-28T01:04:19;1.50;99.90
15328;DHT22;7764;51.430;6.840;2023-02-28T01:06:47;1.50;99.90
15328;DHT22;7764;51.430;6.840;2023-02-28T01:09:14;1.50;99.90
15328;DHT22;7764;51.430;6.840;2023-02-28T01:11:41;1.50;99.90
15328;DHT22;7764;51.430;6.840;2023-02-28T01:14:13;1.50;99.90
15328;DHT22;7764;51.430;6.840;2023-02-28T01:16:40;1.50;99.90
15328;DHT22;7764;51.430;6.840;2023-02-28T01:19:07;1.50;99.90
15328;DHT22;7764;51.430;6.840;2023-02-28T01:21:34;1.50;99.90
15328;DHT22;7764;51.430;6.840;2023-02-28T01:24:03;1.40;99.90
15328;DHT22;7764;51.430;6.840;2023-02-28T01:26:30;1.50;99.90
15328;DHT22;7764;51.430;6.840;2023-02-28T01:28:57;1.50;99.90
15328;DHT22;7764;51.430;6.840;2023-02-28T01:31:25;1.50;99.90
15328;DHT22;7764;51.430;6.840;2023-02-28T01:33:52;1.40;99.90
15328;DHT22;7764;51.430;6.840;2023-02-28T01:36:21;1.40;99.90
15328;DHT22;7764;51.430;6.840;2023-02-28T01:38:48;1.40;99.90
15328;DHT22;7764;51.430;6.840;2023-02-28T01:41:19;1.40;99.90
15328;DHT22;7764;51.430;6.840;2023-02-28T01:43:59;1.40;99.90
15328;DHT22;7764;51.430;6.840;2023-02-28T01:46:28;1.30;99.90
15328;DHT22;7764;51.430;6.840;2023-02-28T01:49:00;1.30;99.90
15328;DHT22;7764;51.430;6.840;2023-02-28T01:51:32;1.30;99.90
15328;DHT22;7764;51.430;6.840;2023-02-28T01:54:03;1.30;99.90
15328;DHT22;7764;51.430;6.840;2023-02-28T01:56:35;1.30;99.90
15328;DHT22;7764;51.430;6.840;2023-02-28T01:59:03;1.30;99.90
15328;DHT22;7764;51.430;6.840;2023-02-28T02:01:31;1.20;99.90
15328;DHT22;7764;51.430;6.840;2023-02-28T02:04:01;1.20;99.90
15328;DHT22;7764;51.430;6.840;2023-02-28T02:06:33;1.20;99.90
15328;DHT22;7764;51.430;6.840;2023-02-28T02:09:00;1.20;99.90
15328;DHT22;7764;51.430;6.840;2023-02-28T02:11:28;1.20;99.90
15328;DHT22;7764;51.430;6.840;2023-02-28T02:14:08;1.10;99.90
15328;DHT22;7764;51.430;6.840;2023-02-28T02:16:51;1.10;99.90
15328;DHT22;7764;51.430;6.840;2023-02-28T02:22:53;1.10;99.90
15328;DHT22;7764;51.430;6.840;2023-02-28T02:25:28;1.00;99.90
15328;DHT22;7764;51.430;6.840;2023-02-28T02:31:11;1.00;99.90
15328;DHT22;7764;51.430;6.840;2023-02-28T02:36:51;1.00;99.90
15328;DHT22;7764;51.430;6.840;2023-02-28T02:39:28;1.00;99.90
15328;DHT22;7764;51.430;6.840;2023-02-28T02:42:00;0.90;99.90
15328;DHT22;7764;51.430;6.840;2023-02-28T02:44:31;0.90;99.90
15328;DHT22;7764;51.430;6.840;2023-02-28T02:47:03;0.90;99.90
15328;DHT22;7764;51.430;6.840;2023-02-28T02:49:33;0.90;99.90
15328;DHT22;7764;51.430;6.840;2023-02-28T02:52:06;0.90;99.90
15328;DHT22;7764;51.430;6.840;2023-02-28T02:54:36;0.80;99.90
15328;DHT22;7764;51.430;6.840;2023-02-28T02:57:08;0.80;99.90
15328;DHT22;7764;51.430;6.840;2023-02-28T02:59:36;0.70;99.90
15328;DHT22;7764;51.430;6.840;2023-02-28T03:02:07;0.70;99.90
15328;DHT22;7764;51.430;6.840;2023-02-28T03:04:40;0.70;99.90
15328;DHT22;7764;51.430;6.840;2023-02-28T03:07:10;0.70;99.90
15328;DHT22;7764;51.430;6.840;2023-02-28T03:09:37;0.70;99.90
15328;DHT22;7764;51.430;6.840;2023-02-28T03:12:08;0.60;99.90
15328;DHT22;7764;51.430;6.840;2023-02-28T03:14:43;0.60;99.90
15328;DHT22;7764;51.430;6.840;2023-02-28T03:17:45;0.60;99.90
15328;DHT22;7764;51.430;6.840;2023-02-28T03:20:23;0.50;99.90
15328;DHT22;7764;51.430;6.840;2023-02-28T03:23:03;0.50;99.90
15328;DHT22;7764;51.430;6.840;2023-02-28T03:25:38;0.50;99.90
15328;DHT22;7764;51.430;6.840;2023-02-28T03:28:14;0.50;99.90
15328;DHT22;7764;51.430;6.840;2023-02-28T03:30:47;0.50;99.90
15328;DHT22;7764;51.430;6.840;2023-02-28T03:33:19;0.50;99.90
15328;DHT22;7764;51.430;6.840;2023-02-28T03:35:50;0.50;99.90
15328;DHT22;7764;51.430;6.840;2023-02-28T03:38:23;0.60;99.90
15328;DHT22;7764;51.430;6.840;2023-02-28T03:40:58;0.50;99.90
15328;DHT22;7764;51.430;6.840;2023-02-28T03:43:29;0.60;99.90
15328;DHT22;7764;51.430;6.840;2023-02-28T03:46:00;0.50;99.90
15328;DHT22;7764;51.430;6.840;2023-02-28T03:48:33;0.50;99.90
15328;DHT22;7764;51.430;6.840;2023-02-28T03:51:03;0.50;99.90
15328;DHT22;7764;51.430;6.840;2023-02-28T03:53:37;0.50;99.90
15328;DHT22;7764;51.430;6.840;2023-02-28T03:56:09;0.50;99.90
15328;DHT22;7764;51.430;6.840;2023-02-28T03:58:42;0.50;99.90
15328;DHT22;7764;51.430;6.840;2023-02-28T04:01:13;0.40;99.90
15328;DHT22;7764;51.430;6.840;2023-02-28T04:03:41;0.40;99.90
15328;DHT22;7764;51.430;6.840;2023-02-28T04:06:14;0.40;99.90
15328;DHT22;7764;51.430;6.840;2023-02-28T04:08:43;0.30;99.90
15328;DHT22;7764;51.430;6.840;2023-02-28T04:11:17;0.30;99.90
15328;DHT22;7764;51.430;6.840;2023-02-28T04:13:45;0.30;99.90
15328;DHT22;7764;51.430;6.840;2023-02-28T04:16:12;0.30;99.90
15328;DHT22;7764;51.430;6.840;2023-02-28T04:18:39;0.30;99.90
15328;DHT22;7764;51.430;6.840;2023-02-28T04:21:06;0.30;99.90
15328;DHT22;7764;51.430;6.840;2023-02-28T04:23:33;0.20;99.90
15328;DHT22;7764;51.430;6.840;2023-02-28T04:26:01;0.20;99.90
15328;DHT22;7764;51.430;6.840;2023-02-28T04:28:29;0.20;99.90
15328;DHT22;7764;51.430;6.840;2023-02-28T04:30:56;0.20;99.90
15328;DHT22;7764;51.430;6.840;2023-02-28T04:33:23;0.10;99.90
15328;DHT22;7764;51.430;6.840;2023-02-28T04:35:58;0.20;99.90
15328;DHT22;7764;51.430;6.840;2023-02-28T04:38:25;0.10;99.90
15328;DHT22;7764;51.430;6.840;2023-02-28T04:40:52;0.20;99.90
15328;DHT22;7764;51.430;6.840;2023-02-28T04:43:20;0.20;99.90
15328;DHT22;7764;51.430;6.840;2023-02-28T04:45:47;0.20;99.90
15328;DHT22;7764;51.430;6.840;2023-02-28T04:48:14;0.30;99.90
15328;DHT22;7764;51.430;6.840;2023-02-28T04:50:40;0.30;99.90
15328;DHT22;7764;51.430;6.840;2023-02-28T04:53:07;0.30;99.90
15328;DHT22;7764;51.430;6.840;2023-02-28T04:55:34;0.30;99.90
15328;DHT22;7764;51.430;6.840;2023-02-28T04:58:01;0.30;99.90
15328;DHT22;7764;51.430;6.840;2023-02-28T05:00:29;0.30;99.90
15328;DHT22;7764;51.430;6.840;2023-02-28T05:02:56;0.30;99.90
15328;DHT22;7764;51.430;6.840;2023-02-28T05:05:29;0.30;99.90
15328;DHT22;7764;51.430;6.840;2023-02-28T05:07:58;0.20;99.90
15328;DHT22;7764;51.430;6.840;2023-02-28T05:10:25;0.20;99.90
15328;DHT22;7764;51.430;6.840;2023-02-28T05:12:52;0.20;99.90
15328;DHT22;7764;51.430;6.840;2023-02-28T05:15:19;0.30;99.90
15328;DHT22;7764;51.430;6.840;2023-02-28T05:17:47;0.20;99.90
15328;DHT22;7764;51.430;6.840;2023-02-28T05:20:14;0.20;99.90
15328;DHT22;7764;51.430;6.840;2023-02-28T05:22:41;0.20;99.90
15328;DHT22;7764;51.430;6.840;2023-02-28T05:25:10;0.20;99.90
15328;DHT22;7764;51.430;6.840;2023-02-28T05:27:39;0.20;99.90
15328;DHT22;7764;51.430;6.840;2023-02-28T05:30:07;0.20;99.90
15328;DHT22;7764;51.430;6.840;2023-02-28T05:32:35;0.20;99.90
15328;DHT22;7764;51.430;6.840;2023-02-28T05:35:04;0.20;99.90
15328;DHT22;7764;51.430;6.840;2023-02-28T05:37:31;0.20;99.90
15328;DHT22;7764;51.430;6.840;2023-02-28T05:39:58;0.20;99.90
15328;DHT22;7764;51.430;6.840;2023-02-28T05:42:25;0.20;99.90
15328;DHT22;7764;51.430;6.840;2023-02-28T05:44:52;0.20;99.90
15328;DHT22;7764;51.430;6.840;2023-02-28T05:47:19;0.20;99.90
15328;DHT22;7764;51.430;6.840;2023-02-28T05:49:46;0.20;99.90
15328;DHT22;7764;51.430;6.840;2023-02-28T05:52:14;0.20;99.90
15328;DHT22;7764;51.430;6.840;2023-02-28T05:54:41;0.20;99.90
15328;DHT22;7764;51.430;6.840;2023-02-28T05:57:08;0.10;99.90
15328;DHT22;7764;51.430;6.840;2023-02-28T05:59:35;0.20;99.90
15328;DHT22;7764;51.430;6.840;2023-02-28T06:02:05;0.20;99.90
15328;DHT22;7764;51.430;6.840;2023-02-28T06:04:32;0.20;99.90
15328;DHT22;7764;51.430;6.840;2023-02-28T06:06:59;0.20;99.90
15328;DHT22;7764;51.430;6.840;2023-02-28T06:09:28;0.20;99.90
15328;DHT22;7764;51.430;6.840;2023-02-28T06:11:57;0.10;99.90
15328;DHT22;7764;51.430;6.840;2023-02-28T06:14:24;0.20;99.90
15328;DHT22;7764;51.430;6.840;2023-02-28T06:16:51;0.10;99.90
15328;DHT22;7764;51.430;6.840;2023-02-28T06:19:18;0.10;99.90
15328;DHT22;7764;51.430;6.840;2023-02-28T06:21:48;0.10;99.90
15328;DHT22;7764;51.430;6.840;2023-02-28T06:24:16;0.10;99.90
15328;DHT22;7764;51.430;6.840;2023-02-28T06:26:45;0.20;99.90
15328;DHT22;7764;51.430;6.840;2023-02-28T06:29:11;0.10;99.90
15328;DHT22;7764;51.430;6.840;2023-02-28T06:31:42;0.10;99.90
15328;DHT22;7764;51.430;6.840;2023-02-28T06:34:09;0.10;99.90
15328;DHT22;7764;51.430;6.840;2023-02-28T06:36:37;0.20;99.90
15328;DHT22;7764;51.430;6.840;2023-02-28T06:39:04;0.20;99.90
15328;DHT22;7764;51.430;6.840;2023-02-28T06:41:31;0.30;99.90
15328;DHT22;7764;51.430;6.840;2023-02-28T06:44:05;0.70;99.90
15328;DHT22;7764;51.430;6.840;2023-02-28T06:46:32;1.10;99.90
15328;DHT22;7764;51.430;6.840;2023-02-28T06:48:59;1.40;99.90
15328;DHT22;7764;51.430;6.840;2023-02-28T06:51:26;1.60;99.90
15328;DHT22;7764;51.430;6.840;2023-02-28T06:53:53;1.80;99.90
15328;DHT22;7764;51.430;6.840;2023-02-28T06:56:20;2.10;99.90
15328;DHT22;7764;51.430;6.840;2023-02-28T06:58:47;2.10;99.90
15328;DHT22;7764;51.430;6.840;2023-02-28T07:01:15;2.10;99.90
15328;DHT22;7764;51.430;6.840;2023-02-28T07:03:42;2.20;99.90
15328;DHT22;7764;51.430;6.840;2023-02-28T07:06:09;2.20;99.90
15328;DHT22;7764;51.430;6.840;2023-02-28T07:08:36;2.40;99.90
15328;DHT22;7764;51.430;6.840;2023-02-28T07:11:04;2.60;99.90
15328;DHT22;7764;51.430;6.840;2023-02-28T07:13:31;2.70;99.90
15328;DHT22;7764;51.430;6.840;2023-02-28T07:16:00;2.80;99.90
15328;DHT22;7764;51.430;6.840;2023-02-28T07:18:28;2.90;99.90
15328;DHT22;7764;51.430;6.840;2023-02-28T07:20:55;2.80;99.90
15328;DHT22;7764;51.430;6.840;2023-02-28T07:23:22;3.00;99.90
15328;DHT22;7764;51.430;6.840;2023-02-28T07:25:50;3.00;99.90
15328;DHT22;7764;51.430;6.840;2023-02-28T07:28:17;3.20;99.90
15328;DHT22;7764;51.430;6.840;2023-02-28T07:30:44;3.20;99.90
15328;DHT22;7764;51.430;6.840;2023-02-28T07:33:11;3.20;99.90
15328;DHT22;7764;51.430;6.840;2023-02-28T07:35:39;3.00;99.90
15328;DHT22;7764;51.430;6.840;2023-02-28T07:38:06;3.00;99.90
15328;DHT22;7764;51.430;6.840;2023-02-28T07:40:35;3.00;99.90
15328;DHT22;7764;51.430;6.840;2023-02-28T07:43:03;3.00;99.90
15328;DHT22;7764;51.430;6.840;2023-02-28T07:45:31;2.90;99.90
15328;DHT22;7764;51.430;6.840;2023-02-28T07:48:00;2.80;99.90
15328;DHT22;7764;51.430;6.840;2023-02-28T07:50:27;2.80;99.90
15328;DHT22;7764;51.430;6.840;2023-02-28T07:52:57;2.70;99.90
15328;DHT22;7764;51.430;6.840;2023-02-28T07:55:24;2.80;99.90
15328;DHT22;7764;51.430;6.840;2023-02-28T07:57:51;2.70;99.90
15328;DHT22;7764;51.430;6.840;2023-02-28T08:00:18;2.70;99.90
15328;DHT22;7764;51.430;6.840;2023-02-28T08:02:46;2.60;99.90
15328;DHT22;7764;51.430;6.840;2023-02-28T08:05:12;2.70;99.90
15328;DHT22;7764;51.430;6.840;2023-02-28T08:07:39;2.70;99.90
15328;DHT22;7764;51.430;6.840;2023-02-28T08:10:09;2.70;99.90
15328;DHT22;7764;51.430;6.840;2023-02-28T08:12:36;2.70;99.90
15328;DHT22;7764;51.430;6.840;2023-02-28T08:15:03;2.70;99.90
15328;DHT22;7764;51.430;6.840;2023-02-28T08:17:30;2.80;99.90
15328;DHT22;7764;51.430;6.840;2023-02-28T08:19:57;2.80;99.90
15328;DHT22;7764;51.430;6.840;2023-02-28T08:22:24;2.90;99.90
15328;DHT22;7764;51.430;6.840;2023-02-28T08:24:51;2.90;99.90
15328;DHT22;7764;51.430;6.840;2023-02-28T08:27:19;2.90;99.90
15328;DHT22;7764;51.430;6.840;2023-02-28T08:29:46;2.80;99.90
15328;DHT22;7764;51.430;6.840;2023-02-28T08:32:13;2.90;99.90
15328;DHT22;7764;51.430;6.840;2023-02-28T08:34:40;3.00;99.90
15328;DHT22;7764;51.430;6.840;2023-02-28T08:37:07;3.10;99.90
15328;DHT22;7764;51.430;6.840;2023-02-28T08:39:34;3.00;99.90
15328;DHT22;7764;51.430;6.840;2023-02-28T08:42:01;3.10;99.90
15328;DHT22;7764;51.430;6.840;2023-02-28T08:44:30;3.10;99.90
15328;DHT22;7764;51.430;6.840;2023-02-28T08:46:56;3.00;99.90
15328;DHT22;7764;51.430;6.840;2023-02-28T08:49:23;3.10;99.90
15328;DHT22;7764;51.430;6.840;2023-02-28T08:51:50;3.30;99.90
15328;DHT22;7764;51.430;6.840;2023-02-28T08:54:17;3.40;99.90
15328;DHT22;7764;51.430;6.840;2023-02-28T08:56:45;3.50;99.90
15328;DHT22;7764;51.430;6.840;2023-02-28T08:59:12;3.40;99.90
15328;DHT22;7764;51.430;6.840;2023-02-28T09:01:40;3.40;99.90
15328;DHT22;7764;51.430;6.840;2023-02-28T09:04:09;3.40;99.90
15328;DHT22;7764;51.430;6.840;2023-02-28T09:06:37;3.50;99.90
15328;DHT22;7764;51.430;6.840;2023-02-28T09:09:04;3.60;99.90
15328;DHT22;7764;51.430;6.840;2023-02-28T09:11:33;3.60;99.90
15328;DHT22;7764;51.430;6.840;2023-02-28T09:14:00;3.60;99.90
15328;DHT22;7764;51.430;6.840;2023-02-28T09:16:29;3.70;99.90
15328;DHT22;7764;51.430;6.840;2023-02-28T09:18:57;4.00;99.90
15328;DHT22;7764;51.430;6.840;2023-02-28T09:21:24;4.00;99.90
15328;DHT22;7764;51.430;6.840;2023-02-28T09:23:51;4.10;99.90
15328;DHT22;7764;51.430;6.840;2023-02-28T09:26:20;4.20;99.90
15328;DHT22;7764;51.430;6.840;2023-02-28T09:28:48;4.20;97.90
15328;DHT22;7764;51.430;6.840;2023-02-28T09:31:17;4.30;98.40
15328;DHT22;7764;51.430;6.840;2023-02-28T09:33:46;4.30;95.80
15328;DHT22;7764;51.430;6.840;2023-02-28T09:36:14;4.20;94.80
15328;DHT22;7764;51.430;6.840;2023-02-28T09:38:41;4.20;95.00
15328;DHT22;7764;51.430;6.840;2023-02-28T09:41:13;4.20;95.20
15328;DHT22;7764;51.430;6.840;2023-02-28T09:43:43;4.30;96.10
15328;DHT22;7764;51.430;6.840;2023-02-28T09:46:18;4.30;96.10
15328;DHT22;7764;51.430;6.840;2023-02-28T09:48:48;4.40;95.10
15328;DHT22;7764;51.430;6.840;2023-02-28T09:51:28;4.40;93.90
15328;DHT22;7764;51.430;6.840;2023-02-28T09:53:56;4.40;93.00
15328;DHT22;7764;51.430;6.840;2023-02-28T09:56:26;4.60;94.30
15328;DHT22;7764;51.430;6.840;2023-02-28T09:58:57;4.60;93.60
15328;DHT22;7764;51.430;6.840;2023-02-28T10:01:30;4.60;91.40
15328;DHT22;7764;51.430;6.840;2023-02-28T10:04:01;4.60;91.80
15328;DHT22;7764;51.430;6.840;2023-02-28T10:06:35;4.80;91.90
15328;DHT22;7764;51.430;6.840;2023-02-28T10:09:09;4.80;91.20
15328;DHT22;7764;51.430;6.840;2023-02-28T10:11:39;4.80;90.50
15328;DHT22;7764;51.430;6.840;2023-02-28T10:14:12;5.00;91.10
15328;DHT22;7764;51.430;6.840;2023-02-28T10:16:43;5.20;90.20
15328;DHT22;7764;51.430;6.840;2023-02-28T10:19:16;5.30;88.40
15328;DHT22;7764;51.430;6.840;2023-02-28T10:21:49;5.20;87.00
15328;DHT22;7764;51.430;6.840;2023-02-28T10:24:26;5.20;88.30
15328;DHT22;7764;51.430;6.840;2023-02-28T10:26:59;5.30;86.00
15328;DHT22;7764;51.430;6.840;2023-02-28T10:29:26;5.30;83.90
15328;DHT22;7764;51.430;6.840;2023-02-28T10:31:53;5.40;82.80
15328;DHT22;7764;51.430;6.840;2023-02-28T10:34:20;5.30;82.20
15328;DHT22;7764;51.430;6.840;2023-02-28T10:36:49;5.30;83.00
15328;DHT22;7764;51.430;6.840;2023-02-28T10:39:36;5.30;82.20
15328;DHT22;7764;51.430;6.840;2023-02-28T10:42:04;5.20;81.50
15328;DHT22;7764;51.430;6.840;2023-02-28T10:44:31;5.20;84.70
15328;DHT22;7764;51.430;6.840;2023-02-28T10:46:58;5.20;82.50
15328;DHT22;7764;51.430;6.840;2023-02-28T10:49:26;5.20;81.40
15328;DHT22;7764;51.430;6.840;2023-02-28T10:51:57;5.30;81.90
15328;DHT22;7764;51.430;6.840;2023-02-28T10:54:28;5.40;80.60
15328;DHT22;7764;51.430;6.840;2023-02-28T10:57:07;5.40;81.40
15328;DHT22;7764;51.430;6.840;2023-02-28T10:59:35;5.70;80.90
15328;DHT22;7764;51.430;6.840;2023-02-28T11:02:07;5.90;81.90
15328;DHT22;7764;51.430;6.840;2023-02-28T11:04:49;5.80;81.40
15328;DHT22;7764;51.430;6.840;2023-02-28T11:07:19;5.70;80.40
15328;DHT22;7764;51.430;6.840;2023-02-28T11:09:48;5.90;82.20
15328;DHT22;7764;51.430;6.840;2023-02-28T11:12:24;5.90;81.50
15328;DHT22;7764;51.430;6.840;2023-02-28T11:14:54;6.00;82.40
15328;DHT22;7764;51.430;6.840;2023-02-28T11:17:24;6.00;77.80
15328;DHT22;7764;51.430;6.840;2023-02-28T11:19:53;5.90;75.30
15328;DHT22;7764;51.430;6.840;2023-02-28T11:22:26;5.60;75.70
15328;DHT22;7764;51.430;6.840;2023-02-28T11:24:57;5.60;76.40
15328;DHT22;7764;51.430;6.840;2023-02-28T11:27:42;5.60;76.40
15328;DHT22;7764;51.430;6.840;2023-02-28T11:30:31;5.50;75.60
15328;DHT22;7764;51.430;6.840;2023-02-28T11:32:58;5.60;76.30
15328;DHT22;7764;51.430;6.840;2023-02-28T11:35:28;5.60;75.50
15328;DHT22;7764;51.430;6.840;2023-02-28T11:37:58;5.70;76.90
15328;DHT22;7764;51.430;6.840;2023-02-28T11:40:31;5.70;76.70
15328;DHT22;7764;51.430;6.840;2023-02-28T11:43:22;5.70;76.10
15328;DHT22;7764;51.430;6.840;2023-02-28T11:46:16;5.60;76.00
15328;DHT22;7764;51.430;6.840;2023-02-28T11:48:52;5.70;77.60
15328;DHT22;7764;51.430;6.840;2023-02-28T11:51:26;5.70;75.80
15328;DHT22;7764;51.430;6.840;2023-02-28T11:54:23;5.80;76.40
15328;DHT22;7764;51.430;6.840;2023-02-28T11:56:54;5.80;75.80
15328;DHT22;7764;51.430;6.840;2023-02-28T11:59:48;5.70;76.50
15328;DHT22;7764;51.430;6.840;2023-02-28T12:02:24;5.70;76.60
15328;DHT22;7764;51.430;6.840;2023-02-28T12:04:57;5.70;76.70
15328;DHT22;7764;51.430;6.840;2023-02-28T12:07:33;5.70;76.80
15328;DHT22;7764;51.430;6.840;2023-02-28T12:10:09;5.80;77.70
15328;DHT22;7764;51.430;6.840;2023-02-28T12:12:47;5.80;77.50
15328;DHT22;7764;51.430;6.840;2023-02-28T12:15:29;5.80;76.40
15328;DHT22;7764;51.430;6.840;2023-02-28T12:18:07;5.90;77.30
15328;DHT22;7764;51.430;6.840;2023-02-28T12:20:41;5.90;77.40
15328;DHT22;7764;51.430;6.840;2023-02-28T12:23:25;5.90;77.40
15328;DHT22;7764;51.430;6.840;2023-02-28T12:26:05;5.80;77.10
15328;DHT22;7764;51.430;6.840;2023-02-28T12:28:39;5.90;77.30
15328;DHT22;7764;51.430;6.840;2023-02-28T12:31:11;5.80;77.50
15328;DHT22;7764;51.430;6.840;2023-02-28T12:33:43;5.80;78.40
15328;DHT22;7764;51.430;6.840;2023-02-28T12:36:14;5.90;78.40
15328;DHT22;7764;51.430;6.840;2023-02-28T12:38:47;6.00;77.60
15328;DHT22;7764;51.430;6.840;2023-02-28T12:41:18;6.00;77.90
15328;DHT22;7764;51.430;6.840;2023-02-28T12:43:51;6.10;78.30
15328;DHT22;7764;51.430;6.840;2023-02-28T12:46:23;5.90;78.10
15328;DHT22;7764;51.430;6.840;2023-02-28T12:48:53;5.90;78.60
15328;DHT22;7764;51.430;6.840;2023-02-28T12:51:22;6.00;79.30
15328;DHT22;7764;51.430;6.840;2023-02-28T12:53:57;6.00;78.70
15328;DHT22;7764;51.430;6.840;2023-02-28T12:56:37;6.10;77.70
15328;DHT22;7764;51.430;6.840;2023-02-28T12:59:14;6.10;77.30
15328;DHT22;7764;51.430;6.840;2023-02-28T13:01:57;6.00;77.60
15328;DHT22;7764;51.430;6.840;2023-02-28T13:04:42;6.00;78.20
15328;DHT22;7764;51.430;6.840;2023-02-28T13:07:43;6.00;78.80
15328;DHT22;7764;51.430;6.840;2023-02-28T13:10:16;6.00;78.70
15328;DHT22;7764;51.430;6.840;2023-02-28T13:12:49;6.00;77.60
15328;DHT22;7764;51.430;6.840;2023-02-28T13:15:19;5.90;77.70
15328;DHT22;7764;51.430;6.840;2023-02-28T13:17:51;5.90;78.60
15328;DHT22;7764;51.430;6.840;2023-02-28T13:20:20;6.00;79.10
15328;DHT22;7764;51.430;6.840;2023-02-28T13:22:48;6.10;81.00
15328;DHT22;7764;51.430;6.840;2023-02-28T13:34:41;6.20;77.90
15328;DHT22;7764;51.430;6.840;2023-02-28T13:37:35;6.10;77.50
15328;DHT22;7764;51.430;6.840;2023-02-28T13:40:29;6.10;78.80
15328;DHT22;7764;51.430;6.840;2023-02-28T13:43:02;6.10;80.10
15328;DHT22;7764;51.430;6.840;2023-02-28T13:45:29;6.10;80.50
15328;DHT22;7764;51.430;6.840;2023-02-28T13:48:04;6.20;81.70
15328;DHT22;7764;51.430;6.840;2023-02-28T13:50:34;6.20;83.20
15328;DHT22;7764;51.430;6.840;2023-02-28T13:53:33;6.20;83.70
15328;DHT22;7764;51.430;6.840;2023-02-28T13:56:07;6.20;82.60
15328;DHT22;7764;51.430;6.840;2023-02-28T13:58:43;6.10;82.60
15328;DHT22;7764;51.430;6.840;2023-02-28T14:01:22;6.20;84.50
15328;DHT22;7764;51.430;6.840;2023-02-28T14:04:07;6.20;84.60
15328;DHT22;7764;51.430;6.840;2023-02-28T14:06:41;6.20;85.10
15328;DHT22;7764;51.430;6.840;2023-02-28T14:09:21;6.20;85.20
15328;DHT22;7764;51.430;6.840;2023-02-28T14:11:50;6.10;85.30
15328;DHT22;7764;51.430;6.840;2023-02-28T14:14:55;6.10;85.20
15328;DHT22;7764;51.430;6.840;2023-02-28T14:17:24;6.10;85.80
15328;DHT22;7764;51.430;6.840;2023-02-28T14:19:51;6.10;86.70
15328;DHT22;7764;51.430;6.840;2023-02-28T14:22:39;6.20;86.40
15328;DHT22;7764;51.430;6.840;2023-02-28T14:25:18;6.20;86.50
15328;DHT22;7764;51.430;6.840;2023-02-28T14:27:49;6.10;86.40
15328;DHT22;7764;51.430;6.840;2023-02-28T14:33:25;6.10;86.50
15328;DHT22;7764;51.430;6.840;2023-02-28T14:36:07;6.10;88.00
15328;DHT22;7764;51.430;6.840;2023-02-28T14:38:41;6.10;87.10
15328;DHT22;7764;51.430;6.840;2023-02-28T14:41:17;6.10;86.90
15328;DHT22;7764;51.430;6.840;2023-02-28T14:43:52;6.10;86.10
15328;DHT22;7764;51.430;6.840;2023-02-28T14:46:20;6.10;85.80
15328;DHT22;7764;51.430;6.840;2023-02-28T14:48:47;6.20;85.80
15328;DHT22;7764;51.430;6.840;2023-02-28T14:51:19;6.20;86.80
15328;DHT22;7764;51.430;6.840;2023-02-28T14:53:50;6.20;88.00
15328;DHT22;7764;51.430;6.840;2023-02-28T14:56:23;6.20;87.80
15328;DHT22;7764;51.430;6.840;2023-02-28T14:58:52;6.10;88.30
15328;DHT22;7764;51.430;6.840;2023-02-28T15:01:20;6.10;88.00
15328;DHT22;7764;51.430;6.840;2023-02-28T15:03:49;6.20;87.90
15328;DHT22;7764;51.430;6.840;2023-02-28T15:06:23;6.10;87.80
15328;DHT22;7764;51.430;6.840;2023-02-28T15:09:06;6.00;87.60
15328;DHT22;7764;51.430;6.840;2023-02-28T15:11:34;6.10;87.70
15328;DHT22;7764;51.430;6.840;2023-02-28T15:14:01;6.10;87.60
15328;DHT22;7764;51.430;6.840;2023-02-28T15:16:32;6.00;89.20
15328;DHT22;7764;51.430;6.840;2023-02-28T15:19:02;6.00;89.60
15328;DHT22;7764;51.430;6.840;2023-02-28T15:21:34;6.00;90.00
15328;DHT22;7764;51.430;6.840;2023-02-28T15:24:07;6.00;90.40
15328;DHT22;7764;51.430;6.840;2023-02-28T15:26:39;6.00;90.60
15328;DHT22;7764;51.430;6.840;2023-02-28T15:29:11;6.00;90.70
15328;DHT22;7764;51.430;6.840;2023-02-28T15:31:43;5.90;90.70
15328;DHT22;7764;51.430;6.840;2023-02-28T15:34:18;5.90;90.50
15328;DHT22;7764;51.430;6.840;2023-02-28T15:36:46;6.00;91.20
15328;DHT22;7764;51.430;6.840;2023-02-28T15:39:23;6.00;90.50
15328;DHT22;7764;51.430;6.840;2023-02-28T15:41:50;5.90;91.00
15328;DHT22;7764;51.430;6.840;2023-02-28T15:44:24;5.80;91.20
15328;DHT22;7764;51.430;6.840;2023-02-28T15:46:59;5.80;91.60
15328;DHT22;7764;51.430;6.840;2023-02-28T15:49:28;5.80;91.20
15328;DHT22;7764;51.430;6.840;2023-02-28T15:51:58;5.80;91.00
15328;DHT22;7764;51.430;6.840;2023-02-28T15:54:32;5.80;90.50
15328;DHT22;7764;51.430;6.840;2023-02-28T15:57:04;5.70;90.50
15328;DHT22;7764;51.430;6.840;2023-02-28T15:59:35;5.80;90.70
15328;DHT22;7764;51.430;6.840;2023-02-28T16:02:13;5.70;90.60
15328;DHT22;7764;51.430;6.840;2023-02-28T16:04:59;5.70;90.80
15328;DHT22;7764;51.430;6.840;2023-02-28T16:07:26;5.70;91.00
15328;DHT22;7764;51.430;6.840;2023-02-28T16:09:55;5.70;91.40
15328;DHT22;7764;51.430;6.840;2023-02-28T16:12:26;5.70;91.70
15328;DHT22;7764;51.430;6.840;2023-02-28T16:14:54;5.70;92.40
15328;DHT22;7764;51.430;6.840;2023-02-28T16:17:23;5.70;93.20
15328;DHT22;7764;51.430;6.840;2023-02-28T16:19:51;5.60;93.60
15328;DHT22;7764;51.430;6.840;2023-02-28T16:22:17;5.60;94.80
15328;DHT22;7764;51.430;6.840;2023-02-28T16:24:44;5.60;95.30
15328;DHT22;7764;51.430;6.840;2023-02-28T16:27:18;5.60;95.10
15328;DHT22;7764;51.430;6.840;2023-02-28T16:29:47;5.60;95.70
15328;DHT22;7764;51.430;6.840;2023-02-28T16:32:15;5.50;96.60
15328;DHT22;7764;51.430;6.840;2023-02-28T16:34:43;5.50;96.70
15328;DHT22;7764;51.430;6.840;2023-02-28T16:37:12;5.50;97.00
15328;DHT22;7764;51.430;6.840;2023-02-28T16:39:40;5.40;97.30
15328;DHT22;7764;51.430;6.840;2023-02-28T16:42:10;5.40;97.50
15328;DHT22;7764;51.430;6.840;2023-02-28T16:44:42;5.40;97.80
15328;DHT22;7764;51.430;6.840;2023-02-28T16:47:10;5.30;97.50